Custom Search

Airport METAR Reports

 

YMAV - Avalon Airport, Australia
Distance from station: 0 0km
Updated: 26/09/2018 01:00

 Wind from WNW
Wind: WNW 7 km/h
Temperature: 4°C
Wind Chill: 2°C
Dew Point: 3°C
Humidity: 93%
Barometer: 1026 hPa
2018/09/25 15:00 YMAV 251500Z AUTO 30004KT //// // ////// 04/03 Q1026
YMML - Melbourne Intl A, Australia
Distance from station: NE 50km
Updated: 26/09/2018 01:00
Few Clouds
Few Clouds
 Wind from W
Wind: W 15 km/h
Temperature: 4°C
Wind Chill: 1°C
Dew Point: 3°C
Humidity: 93%
Barometer: 1025 hPa
Clouds: Few Clouds
Visibility: 10 km
Cloud details: Few Clouds 945 m
2018/09/25 15:00 YMML 251500Z 27008KT 9999 FEW031 04/03 Q1025
YMEN - Melbourne/Essend, Australia
Distance from station: NE 51km
Updated: 26/09/2018 01:00
Clear
Clear
 Wind from W
Wind: W 11 km/h
Temperature: 4°C
Wind Chill: 1°C
Dew Point: 4°C
Humidity: 100%
Barometer: 1025 hPa
Clouds: Clear
Visibility: 10 km
2018/09/25 15:00 YMEN 251500Z AUTO 27006KT 9999 // NCD 04/04 Q1025
 
YWGT - Wangaratta Arp, Australia
Distance from station: NE 241km
Updated: 26/09/2018 01:00

 Wind from SSE
Wind: SSE 9 km/h
Temperature: 10°C
Wind Chill: 9°C
Dew Point: 5°C
Humidity: 71%
Barometer: 1022 hPa
Visibility: 10 km
2018/09/25 15:00 YWGT 251500Z AUTO 16005KT 9999 // ////// 10/05 Q1022
YMAY - Albury Airport, Australia
Distance from station: NE 308km
Updated: 26/09/2018 01:00
Overcast
Overcast
 Wind from SSE
Wind: SSE 17 km/h
Temperature: 12°C
Dew Point: 4°C
Humidity: 58%
Barometer: 1022 hPa
Clouds: Overcast
Visibility: 10 km
Cloud details: Partly cloudy 2164 m
Overcast 2774 m
2018/09/25 15:00 YMAY 251500Z AUTO 15009KT 9999 // SCT071 OVC091 12/04 Q1022
YMTG - Mount Gambier, Australia
Distance from station: W 326km
Updated: 26/09/2018 01:00

 Wind from calm
Wind: Calm
Temperature: 3°C
Dew Point: 1°C
Humidity: 87%
Barometer: 1026 hPa
2018/09/25 15:00 YMTG 251500Z AUTO 00000KT //// // ////// 03/01 Q1026
 
YNAR - Narrandera, Australia
Distance from station: NNE 413km
Updated: 26/09/2018 01:00

 Wind from NNW
Wind: NNW 2 km/h
Temperature: 7°C
Dew Point: -1°C
Humidity: 57%
Barometer: 1021 hPa
2018/09/25 15:00 YNAR 251500Z AUTO 34001KT //// // ////// 07/M01 Q1021
YSWG - Wagga Wagga(Cv/M, Australia
Distance from station: NE 418km
Updated: 26/09/2018 01:00
Clear
Clear
 Wind from E
Wind: E 9 km/h
Temperature: 9°C
Wind Chill: 7°C
Dew Point: 2°C
Humidity: 62%
Barometer: 1021 hPa
Clouds: Clear
Visibility: 10 km
2018/09/25 15:00 YSWG 251500Z AUTO 10005KT 9999 // NCD 09/02 Q1021
YCOM - Cooma Snowy Mtns, Australia
Distance from station: ENE 441km
Updated: 26/09/2018 01:00
Overcast
Overcast
 Wind from ENE
Wind: ENE 7 km/h
Temperature: 6°C
Wind Chill: 4°C
Dew Point: 3°C
Humidity: 81%
Barometer: 1023 hPa
Clouds: Overcast
Visibility: 10 km
Cloud details: Mostly cloudy 457 m
Overcast 884 m
2018/09/25 15:00 YCOM 251500Z AUTO 06004KT 9999 // BKN015 OVC029 06/03 Q1023
 
YGTH - Griffith Arpt, Australia
Distance from station: NNE 444km
Updated: 26/09/2018 01:00
Clear
Clear
 Wind from S
Wind: S 19 km/h
Temperature: 11°C
Dew Point: 4°C
Humidity: 62%
Barometer: 1021 hPa
Clouds: Clear
Visibility: 10 km
2018/09/25 15:00 YGTH 251500Z AUTO 18010KT 9999 // NCD 11/04 Q1021
YMLT - Launceston Airpo, Australia
Distance from station: SSE 451km
Updated: 26/09/2018 01:00
Mostly cloudy
Mostly cloudy
 Wind from NE
Wind: NE 9 km/h
Temperature: 6°C
Wind Chill: 4°C
Dew Point: 3°C
Humidity: 81%
Barometer: 1027 hPa
Clouds: Mostly cloudy
Visibility: 10 km
Cloud details: Partly cloudy 671 m
Partly cloudy 975 m
Mostly cloudy 1219 m
2018/09/25 15:00 YMLT 251500Z AUTO 05005KT 9999 // SCT022 SCT032 BKN040 06/03 Q1027
YMIA - Mildura Arpt, Australia
Distance from station: NNW 474km
Updated: 26/09/2018 01:00
Clear
Clear
 Wind from SE
Wind: SE 13 km/h
Temperature: 11°C
Dew Point: 1°C
Humidity: 50%
Barometer: 1023 hPa
Clouds: Clear
Visibility: 10 km
2018/09/25 15:00 YMIA 251500Z AUTO 14007KT 9999 // NCD 11/01 Q1023
 
YMER - Merimbula Arpt, Australia
Distance from station: ENE 494km
Updated: 26/09/2018 01:00
Overcast
Overcast
 Wind from WNW
Wind: WNW 9 km/h
Temperature: 9°C
Wind Chill: 7°C
Dew Point: 8°C
Humidity: 94%
Barometer: 1026 hPa
Clouds: Overcast
Visibility: 8 km
Cloud details: Mostly cloudy 945 m
Overcast 1219 m
Overcast 1433 m
2018/09/25 15:00 YMER 251500Z AUTO 30005KT 8000 // BKN031 OVC040 OVC047 09/08 Q1026
YSCB - Canberra (civ/Mi, Australia
Distance from station: NE 518km
Updated: 26/09/2018 01:00
Overcast
Overcast
 Wind from SSE
Wind: SSE 9 km/h
Temperature: 9°C
Wind Chill: 7°C
Dew Point: 5°C
Humidity: 76%
Barometer: 1023 hPa
Clouds: Overcast
Visibility: 10 km
Cloud details: Overcast 610 m
2018/09/25 15:00 YSCB 251500Z AUTO 15005KT 9999 // OVC020 09/05 Q1023
YMHB - Hobart/Tasmania, Australia
Distance from station: SSE 590km
Updated: 26/09/2018 01:00
Few Clouds
Few Clouds
 Wind from W
Wind: W 9 km/h
Temperature: 4°C
Wind Chill: 2°C
Dew Point: 1°C
Humidity: 81%
Barometer: 1027 hPa
Clouds: Few Clouds
Visibility: 10 km
Cloud details: Few Clouds 1524 m
2018/09/25 15:00 YMHB 251500Z 27005KT 9999 FEW050 04/01 Q1027